OPLA

Alama Iqbal International Airport

Lahore, Pakistan
TAF OPLA 162145Z 1700/1806 13010KT 4000 FU SCT040 SCT100 TX33/1710Z TN25/1700Z TEMPO 1701/1705Z 05020G35KT 1000 TSRA FEW030CB SCT040 OVC100 TEMPO 1720/1802Z 34020G40KT 1000 TSRA FEW030CB SCT040 OVC100
Issued Valid From Valid To
Jul-16 @ 21:45 UTC
(3 hours ago)
Jul-17 @ 00:00 UTC
(24 minutes ago)
Jul-18 @ 06:00 UTC
(-1 days ago)
Jul-17 @ 00:00 to Jul-18 @ 06:00
TAF OPLA 162145Z 1700/1806 13010KT 4000 FU SCT040 SCT100 TX33/1710Z TN25/1700Z
Wind Visibility Clouds Conditions
130° at 10 knots 4,007 meters
  • Scattered at 4,000' AGL
  • Scattered at 10,000' AGL
  • Smoke
Temporary Jul-17 @ 01:00 to Jul-17 @ 05:00
TEMPO 1701/1705Z 05020G35KT 1000 TSRA FEW030CB SCT040 OVC100
Wind Visibility Clouds Conditions
50° at 20 knots
 Gusting to 35 knots
998 meters
  • Few at 3,000' AGL
  • Scattered at 4,000' AGL
  • Overcast at 10,000' AGL
  • Thunderstorm
  • Rain
Temporary Jul-17 @ 20:00 to Jul-18 @ 02:00
TEMPO 1720/1802Z 34020G40KT 1000 TSRA FEW030CB SCT040 OVC100
Wind Visibility Clouds Conditions
340° at 20 knots
 Gusting to 40 knots
998 meters
  • Few at 3,000' AGL
  • Scattered at 4,000' AGL
  • Overcast at 10,000' AGL
  • Thunderstorm
  • Rain
TAF OPLA 162145Z 1700/1806 13010KT 4000 FU SCT040 SCT100 TX33/1710Z TN25/1700Z TEMPO 1701/1705Z 05020G35KT 1000 TSRA FEW030CB SCT040 OVC100 TEMPO 1720/1802Z 34020G40KT 1000 TSRA FEW030CB SCT040 OVC100
Issued Jul-16 @ 21:45 UTC
(3 hours ago)
Valid From Jul-17 @ 00:00 UTC
(24 minutes ago)
Valid To Jul-18 @ 06:00 UTC
(-1 days ago)
Jul-17 @ 00:00 - Jul-18 @ 06:00
Wind Visibility
130° at 10 knots 4,007 meters
Clouds
  • Scattered at 4,000' AGL
  • Scattered at 10,000' AGL
Conditions
  • Smoke
Temporary Jul-17 @ 01:00 - Jul-17 @ 05:00
Wind Visibility
50° at 20 knots
 Gusting to 35 knots
998 meters
Clouds
  • Few at 3,000' AGL
  • Scattered at 4,000' AGL
  • Overcast at 10,000' AGL
Conditions
  • Thunderstorm
  • Rain
Temporary Jul-17 @ 20:00 - Jul-18 @ 02:00
Wind Visibility
340° at 20 knots
 Gusting to 40 knots
998 meters
Clouds
  • Few at 3,000' AGL
  • Scattered at 4,000' AGL
  • Overcast at 10,000' AGL
Conditions
  • Thunderstorm
  • Rain